Sabzevar, Iran
Current Conditions -  °F | °C
As of 8:00 PM on Monday 22 Dec 2014 (Local Time) from OIMN Reporting Station
Clear Clear  
Wind Chill: 36°   Ceiling: Unl
Heat Index: 36°   Visibility: 6mi
Dew Point: 30°   Wind: 0mph
Humidity: 81%   Direction: NA
Pressure: 29.97"   Gusts: NA
Location:  36.22°N, 57.63°E
Report Text: OIMN 221700Z 00000KT CAVOK 02/M01 Q1015
Loading
Personal Weather Stations






























Interactive Weather Map New forecast layout! Learn more

10-Day Weather Forecast

Advertisements
Track Severe Weather on mobile